sensor_id;sensor_type;location;lat;lon;timestamp;pressure;altitude;pressure_sealevel;temperature;humidity
31873;BME280;22407;42.820;23.374;2022-09-09T00:04:56;95953.60;;;14.10;93.74
31873;BME280;22407;42.820;23.374;2022-09-09T00:07:34;95955.58;;;14.08;95.10
31873;BME280;22407;42.820;23.374;2022-09-09T00:13:20;95960.72;;;13.92;95.59
31873;BME280;22407;42.820;23.374;2022-09-09T00:15:38;95959.94;;;13.95;94.94
31873;BME280;22407;42.820;23.374;2022-09-09T00:18:10;95967.63;;;13.98;95.21
31873;BME280;22407;42.820;23.374;2022-09-09T00:20:40;95963.30;;;13.97;95.69
31873;BME280;22407;42.820;23.374;2022-09-09T00:23:30;95961.87;;;14.35;94.66
31873;BME280;22407;42.820;23.374;2022-09-09T00:31:34;95948.83;;;14.18;94.14
31873;BME280;22407;42.820;23.374;2022-09-09T00:34:13;95932.71;;;14.24;92.55
31873;BME280;22407;42.820;23.374;2022-09-09T00:36:42;95934.83;;;14.20;92.19
31873;BME280;22407;42.820;23.374;2022-09-09T00:44:34;95934.26;;;13.81;95.48
31873;BME280;22407;42.820;23.374;2022-09-09T00:47:58;95936.47;;;13.85;94.89
31873;BME280;22407;42.820;23.374;2022-09-09T00:52:48;95930.16;;;13.72;96.19
31873;BME280;22407;42.820;23.374;2022-09-09T00:55:24;95930.25;;;13.81;95.81
31873;BME280;22407;42.820;23.374;2022-09-09T00:57:53;95932.11;;;13.98;95.24
31873;BME280;22407;42.820;23.374;2022-09-09T01:00:59;95929.70;;;13.77;96.18
31873;BME280;22407;42.820;23.374;2022-09-09T01:06:00;95933.29;;;13.72;96.18
31873;BME280;22407;42.820;23.374;2022-09-09T01:08:35;95932.84;;;13.90;95.44
31873;BME280;22407;42.820;23.374;2022-09-09T01:11:02;95921.89;;;13.93;95.06
31873;BME280;22407;42.820;23.374;2022-09-09T01:13:33;95928.84;;;14.04;93.36
31873;BME280;22407;42.820;23.374;2022-09-09T01:16:06;95929.80;;;13.85;93.49
31873;BME280;22407;42.820;23.374;2022-09-09T01:18:46;95926.50;;;13.60;94.78
31873;BME280;22407;42.820;23.374;2022-09-09T01:21:30;95929.06;;;13.51;95.44
31873;BME280;22407;42.820;23.374;2022-09-09T01:24:15;95924.64;;;13.32;96.94
31873;BME280;22407;42.820;23.374;2022-09-09T01:26:45;95929.77;;;13.20;98.97
31873;BME280;22407;42.820;23.374;2022-09-09T01:29:16;95927.19;;;13.14;100.00
31873;BME280;22407;42.820;23.374;2022-09-09T01:34:27;95933.65;;;13.12;99.32
31873;BME280;22407;42.820;23.374;2022-09-09T01:39:36;95942.86;;;13.37;98.67
31873;BME280;22407;42.820;23.374;2022-09-09T01:42:08;95938.30;;;13.33;98.63
31873;BME280;22407;42.820;23.374;2022-09-09T01:44:38;95955.21;;;13.28;98.27
31873;BME280;22407;42.820;23.374;2022-09-09T01:47:07;95951.17;;;13.48;96.86
31873;BME280;22407;42.820;23.374;2022-09-09T01:49:37;95954.94;;;13.69;94.86
31873;BME280;22407;42.820;23.374;2022-09-09T01:52:06;95947.13;;;13.71;94.07
31873;BME280;22407;42.820;23.374;2022-09-09T01:54:36;95949.75;;;13.53;95.02
31873;BME280;22407;42.820;23.374;2022-09-09T02:00:04;95959.67;;;13.28;96.93
31873;BME280;22407;42.820;23.374;2022-09-09T02:03:00;95949.84;;;13.14;97.58
31873;BME280;22407;42.820;23.374;2022-09-09T02:08:08;95951.92;;;12.97;99.01
31873;BME280;22407;42.820;23.374;2022-09-09T02:10:45;95955.22;;;12.85;100.00
31873;BME280;22407;42.820;23.374;2022-09-09T02:13:17;95951.17;;;13.14;98.83
31873;BME280;22407;42.820;23.374;2022-09-09T02:16:06;95950.55;;;13.07;99.80
31873;BME280;22407;42.820;23.374;2022-09-09T02:18:43;95945.19;;;13.26;98.65
31873;BME280;22407;42.820;23.374;2022-09-09T02:21:12;95939.30;;;13.23;97.85
31873;BME280;22407;42.820;23.374;2022-09-09T02:23:43;95936.55;;;13.28;98.48
31873;BME280;22407;42.820;23.374;2022-09-09T02:26:15;95933.02;;;13.28;98.32
31873;BME280;22407;42.820;23.374;2022-09-09T02:28:48;95928.28;;;13.31;98.18
31873;BME280;22407;42.820;23.374;2022-09-09T02:31:20;95930.16;;;13.11;99.46
31873;BME280;22407;42.820;23.374;2022-09-09T02:34:00;95931.18;;;13.14;99.71
31873;BME280;22407;42.820;23.374;2022-09-09T02:36:25;95932.83;;;13.02;100.00
31873;BME280;22407;42.820;23.374;2022-09-09T02:38:56;95926.74;;;12.95;100.00
31873;BME280;22407;42.820;23.374;2022-09-09T02:41:28;95932.34;;;12.92;100.00
31873;BME280;22407;42.820;23.374;2022-09-09T02:43:57;95940.27;;;12.88;100.00
31873;BME280;22407;42.820;23.374;2022-09-09T02:46:32;95941.27;;;12.87;100.00
31873;BME280;22407;42.820;23.374;2022-09-09T02:49:03;95939.42;;;12.97;100.00
31873;BME280;22407;42.820;23.374;2022-09-09T02:51:45;95950.34;;;13.04;100.00
31873;BME280;22407;42.820;23.374;2022-09-09T02:56:56;95943.87;;;13.16;100.00
31873;BME280;22407;42.820;23.374;2022-09-09T02:59:26;95950.02;;;13.27;98.96
31873;BME280;22407;42.820;23.374;2022-09-09T03:01:56;95940.20;;;13.17;99.14
31873;BME280;22407;42.820;23.374;2022-09-09T03:04:25;95941.34;;;13.34;96.66
31873;BME280;22407;42.820;23.374;2022-09-09T03:06:54;95941.85;;;13.05;98.55
31873;BME280;22407;42.820;23.374;2022-09-09T03:09:23;95943.51;;;13.15;97.67
31873;BME280;22407;42.820;23.374;2022-09-09T03:11:53;95949.52;;;12.94;99.00
31873;BME280;22407;42.820;23.374;2022-09-09T03:14:23;95955.08;;;12.87;98.78
31873;BME280;22407;42.820;23.374;2022-09-09T03:16:55;95958.47;;;12.60;99.95
31873;BME280;22407;42.820;23.374;2022-09-09T03:19:25;95959.38;;;12.74;100.00
31873;BME280;22407;42.820;23.374;2022-09-09T03:21:55;95961.58;;;12.88;99.35
31873;BME280;22407;42.820;23.374;2022-09-09T03:24:24;95967.54;;;12.86;99.53
31873;BME280;22407;42.820;23.374;2022-09-09T03:26:53;95961.74;;;12.77;99.20
31873;BME280;22407;42.820;23.374;2022-09-09T03:29:23;95953.62;;;12.78;99.12
31873;BME280;22407;42.820;23.374;2022-09-09T03:31:52;95959.52;;;12.82;99.27
31873;BME280;22407;42.820;23.374;2022-09-09T03:34:21;95956.78;;;12.78;98.60
31873;BME280;22407;42.820;23.374;2022-09-09T03:36:50;95953.12;;;12.89;97.42
31873;BME280;22407;42.820;23.374;2022-09-09T03:39:19;95960.91;;;12.47;99.76
31873;BME280;22407;42.820;23.374;2022-09-09T03:41:48;95963.09;;;12.57;99.91
31873;BME280;22407;42.820;23.374;2022-09-09T03:44:17;95961.48;;;12.51;100.00
31873;BME280;22407;42.820;23.374;2022-09-09T03:46:45;95961.62;;;12.30;100.00
31873;BME280;22407;42.820;23.374;2022-09-09T03:49:14;95957.19;;;12.44;100.00
31873;BME280;22407;42.820;23.374;2022-09-09T03:51:44;95953.00;;;12.32;100.00
31873;BME280;22407;42.820;23.374;2022-09-09T03:54:13;95955.95;;;12.39;100.00
31873;BME280;22407;42.820;23.374;2022-09-09T03:56:42;95957.48;;;12.41;100.00
31873;BME280;22407;42.820;23.374;2022-09-09T03:59:11;95956.09;;;12.47;100.00
31873;BME280;22407;42.820;23.374;2022-09-09T04:01:41;95961.34;;;12.43;100.00
31873;BME280;22407;42.820;23.374;2022-09-09T04:04:11;95960.63;;;12.31;100.00
31873;BME280;22407;42.820;23.374;2022-09-09T04:06:39;95962.66;;;12.33;100.00
31873;BME280;22407;42.820;23.374;2022-09-09T04:09:08;95961.67;;;12.44;100.00
31873;BME280;22407;42.820;23.374;2022-09-09T04:11:37;95962.66;;;12.52;100.00
31873;BME280;22407;42.820;23.374;2022-09-09T04:14:06;95962.66;;;12.52;100.00
31873;BME280;22407;42.820;23.374;2022-09-09T04:16:36;95955.65;;;12.42;100.00
31873;BME280;22407;42.820;23.374;2022-09-09T04:19:05;95952.70;;;12.54;100.00
31873;BME280;22407;42.820;23.374;2022-09-09T04:21:35;95957.90;;;12.56;100.00
31873;BME280;22407;42.820;23.374;2022-09-09T04:24:04;95956.34;;;12.63;100.00
31873;BME280;22407;42.820;23.374;2022-09-09T04:26:33;95956.48;;;12.91;98.32
31873;BME280;22407;42.820;23.374;2022-09-09T04:29:04;95947.30;;;12.89;98.28
31873;BME280;22407;42.820;23.374;2022-09-09T04:31:35;95952.22;;;12.74;99.28
31873;BME280;22407;42.820;23.374;2022-09-09T04:34:05;95959.64;;;12.71;100.00
31873;BME280;22407;42.820;23.374;2022-09-09T04:36:34;95965.27;;;12.68;100.00
31873;BME280;22407;42.820;23.374;2022-09-09T04:39:03;95961.05;;;12.75;100.00
31873;BME280;22407;42.820;23.374;2022-09-09T04:41:32;95964.00;;;12.72;100.00
31873;BME280;22407;42.820;23.374;2022-09-09T04:44:03;95964.27;;;12.69;100.00
31873;BME280;22407;42.820;23.374;2022-09-09T04:46:31;95974.02;;;12.74;100.00
31873;BME280;22407;42.820;23.374;2022-09-09T04:49:02;95968.61;;;13.23;99.61
31873;BME280;22407;42.820;23.374;2022-09-09T04:51:31;95975.61;;;13.43;97.69
31873;BME280;22407;42.820;23.374;2022-09-09T04:53:59;95952.27;;;13.31;98.87
31873;BME280;22407;42.820;23.374;2022-09-09T04:56:28;95952.70;;;13.36;99.34
31873;BME280;22407;42.820;23.374;2022-09-09T04:58:57;95956.70;;;13.50;99.31
31873;BME280;22407;42.820;23.374;2022-09-09T05:01:26;95955.81;;;13.46;100.00
31873;BME280;22407;42.820;23.374;2022-09-09T05:03:55;95959.34;;;13.60;100.00
31873;BME280;22407;42.820;23.374;2022-09-09T05:06:25;95954.75;;;13.66;100.00
31873;BME280;22407;42.820;23.374;2022-09-09T05:08:54;95961.75;;;13.67;100.00
31873;BME280;22407;42.820;23.374;2022-09-09T05:11:27;95949.88;;;13.66;100.00
31873;BME280;22407;42.820;23.374;2022-09-09T05:13:57;95944.66;;;13.74;100.00
31873;BME280;22407;42.820;23.374;2022-09-09T05:16:26;95948.98;;;13.85;100.00
31873;BME280;22407;42.820;23.374;2022-09-09T05:18:55;95958.34;;;14.03;100.00
31873;BME280;22407;42.820;23.374;2022-09-09T05:21:25;95956.00;;;14.17;100.00
31873;BME280;22407;42.820;23.374;2022-09-09T05:23:54;95943.78;;;14.47;99.94
31873;BME280;22407;42.820;23.374;2022-09-09T05:26:23;95949.41;;;15.19;96.69
31873;BME280;22407;42.820;23.374;2022-09-09T05:28:52;95931.53;;;15.76;92.90
31873;BME280;22407;42.820;23.374;2022-09-09T05:33:56;95944.47;;;16.48;88.76
31873;BME280;22407;42.820;23.374;2022-09-09T05:36:26;95938.63;;;16.65;88.55
31873;BME280;22407;42.820;23.374;2022-09-09T05:38:55;95940.32;;;17.24;85.34
31873;BME280;22407;42.820;23.374;2022-09-09T05:41:24;95936.14;;;18.25;79.48
31873;BME280;22407;42.820;23.374;2022-09-09T05:43:53;95936.98;;;19.36;73.95
31873;BME280;22407;42.820;23.374;2022-09-09T05:46:24;95929.23;;;20.52;69.64
31873;BME280;22407;42.820;23.374;2022-09-09T05:48:54;95918.63;;;21.65;64.17
31873;BME280;22407;42.820;23.374;2022-09-09T05:51:26;95915.05;;;22.78;60.28
31873;BME280;22407;42.820;23.374;2022-09-09T05:53:55;95919.34;;;23.57;56.79
31873;BME280;22407;42.820;23.374;2022-09-09T05:56:28;95912.92;;;24.30;53.42
31873;BME280;22407;42.820;23.374;2022-09-09T05:58:57;95908.97;;;24.93;51.10
31873;BME280;22407;42.820;23.374;2022-09-09T06:01:31;95904.34;;;25.51;50.36
31873;BME280;22407;42.820;23.374;2022-09-09T06:04:00;95907.63;;;25.78;49.96
31873;BME280;22407;42.820;23.374;2022-09-09T06:06:35;95914.94;;;26.21;49.51
31873;BME280;22407;42.820;23.374;2022-09-09T06:09:08;95915.88;;;26.63;47.22
31873;BME280;22407;42.820;23.374;2022-09-09T06:11:39;95911.05;;;26.86;47.26
31873;BME280;22407;42.820;23.374;2022-09-09T06:14:09;95911.28;;;27.06;46.74
31873;BME280;22407;42.820;23.374;2022-09-09T06:16:38;95909.36;;;26.74;47.24
31873;BME280;22407;42.820;23.374;2022-09-09T06:19:07;95915.28;;;26.61;47.50
31873;BME280;22407;42.820;23.374;2022-09-09T06:21:36;95926.33;;;26.48;48.68
31873;BME280;22407;42.820;23.374;2022-09-09T06:24:06;95927.08;;;26.18;48.71
31873;BME280;22407;42.820;23.374;2022-09-09T06:26:39;95919.23;;;26.19;49.07
31873;BME280;22407;42.820;23.374;2022-09-09T06:29:08;95919.45;;;25.99;47.25
31873;BME280;22407;42.820;23.374;2022-09-09T06:31:38;95921.33;;;26.45;46.08
31873;BME280;22407;42.820;23.374;2022-09-09T06:34:08;95926.14;;;26.71;44.92
31873;BME280;22407;42.820;23.374;2022-09-09T06:36:38;95914.88;;;26.97;44.03
31873;BME280;22407;42.820;23.374;2022-09-09T06:39:08;95906.59;;;26.83;43.50
31873;BME280;22407;42.820;23.374;2022-09-09T06:41:38;95900.59;;;26.53;43.66
31873;BME280;22407;42.820;23.374;2022-09-09T06:44:07;95901.64;;;26.52;42.82
31873;BME280;22407;42.820;23.374;2022-09-09T06:46:36;95898.75;;;26.75;41.86
31873;BME280;22407;42.820;23.374;2022-09-09T06:49:05;95889.38;;;27.13;42.16
31873;BME280;22407;42.820;23.374;2022-09-09T06:51:36;95892.24;;;27.39;41.66
31873;BME280;22407;42.820;23.374;2022-09-09T06:54:06;95891.00;;;27.32;41.10
31873;BME280;22407;42.820;23.374;2022-09-09T06:56:39;95896.52;;;27.46;40.47
31873;BME280;22407;42.820;23.374;2022-09-09T06:59:11;95907.61;;;27.78;40.14
31873;BME280;22407;42.820;23.374;2022-09-09T07:01:42;95908.56;;;27.95;39.80
31873;BME280;22407;42.820;23.374;2022-09-09T07:04:18;95908.14;;;27.65;40.62
31873;BME280;22407;42.820;23.374;2022-09-09T07:06:47;95909.02;;;27.68;40.57
31873;BME280;22407;42.820;23.374;2022-09-09T07:09:16;95912.03;;;27.81;40.56
31873;BME280;22407;42.820;23.374;2022-09-09T07:11:47;95906.40;;;27.85;40.06
31873;BME280;22407;42.820;23.374;2022-09-09T07:14:16;95911.52;;;27.70;40.32
31873;BME280;22407;42.820;23.374;2022-09-09T07:16:46;95909.05;;;27.15;41.89
31873;BME280;22407;42.820;23.374;2022-09-09T07:19:15;95899.45;;;27.12;41.64
31873;BME280;22407;42.820;23.374;2022-09-09T07:21:44;95900.11;;;27.26;41.92
31873;BME280;22407;42.820;23.374;2022-09-09T07:24:13;95897.39;;;27.26;42.34
31873;BME280;22407;42.820;23.374;2022-09-09T07:26:43;95899.69;;;26.89;42.50
31873;BME280;22407;42.820;23.374;2022-09-09T07:29:13;95899.56;;;26.84;41.76
31873;BME280;22407;42.820;23.374;2022-09-09T07:31:42;95898.97;;;27.03;41.53
31873;BME280;22407;42.820;23.374;2022-09-09T07:34:11;95898.06;;;27.42;41.36
31873;BME280;22407;42.820;23.374;2022-09-09T07:36:40;95902.61;;;27.63;41.14
31873;BME280;22407;42.820;23.374;2022-09-09T07:39:12;95893.30;;;27.38;41.90
31873;BME280;22407;42.820;23.374;2022-09-09T07:41:44;95892.98;;;26.83;43.35
31873;BME280;22407;42.820;23.374;2022-09-09T07:44:21;95888.55;;;27.33;42.05
31873;BME280;22407;42.820;23.374;2022-09-09T07:46:50;95889.70;;;27.70;41.42
31873;BME280;22407;42.820;23.374;2022-09-09T07:49:19;95887.98;;;27.90;41.35
31873;BME280;22407;42.820;23.374;2022-09-09T07:51:48;95895.73;;;27.60;41.66
31873;BME280;22407;42.820;23.374;2022-09-09T07:54:18;95897.05;;;27.58;41.70
